Latest Coastal Weather Observations for Cape Ferguson

IDQ60701

Issued at 12:31 pm EST Saturday 30 May 2015 (issued every 10 minutes, with the page automatically refreshed every 10 minutes)

About coastal observations | Map of coastal stations | Coastal observations for QLD | Marine services | Other Formats
Station Details ID: 032182 Name: CAPE FERGUSON NTC AWS Lat: -19.28 Lon: 147.06 Height: 0.0 m
Data from the previous 72 hours. | See also: Recent months for locations in Queensland
Date/Time
EST
Temp

°C
Wind Pressure Rain
since 9am
mm
Weather Cloud Vis
km
Sea
Height
m
Swell
Dir
 
Speed
knots
Gust
knots
hPa Trend Height
m
Period
s
Dir
30/12:30pm 24.1 ESE 13 17 1018.1 - - - - - - - - -
30/12:00pm 24.2 ESE 11 14 1018.4 - - - - - - - - -
30/11:30am 24.1 ESE 11 13 1019.0 - - - - - - - - -
30/11:00am 23.9 ESE 11 13 1019.4 - - - - - - - - -
30/10:30am 23.5 SE 10 13 1019.7 - - - - - - - - -
30/10:00am 22.9 SE 11 12 1020.3 - - - - - - - - -
30/09:30am 22.8 SSE 12 14 1020.5 - - - - - - - - -
30/09:00am 22.7 SSE 13 16 1020.4 - - - - - - - - -
30/08:30am 22.7 SSE 12 15 1020.2 - - - - - - - - -
30/08:00am 22.6 SSE 11 14 1019.9 - - - - - - - - -
30/07:30am 22.2 SSE 12 14 1019.5 - - - - - - - - -
30/07:00am 22.4 SSE 11 15 1019.3 - - - - - - - - -
30/06:30am 22.1 SSE 12 13 1018.7 - - - - - - - - -
30/06:00am 22.0 SSE 11 13 1018.5 - - - - - - - - -
30/05:30am 22.0 SE 11 14 1018.3 - - - - - - - - -
30/05:00am 22.1 SE 11 14 1018.2 - - - - - - - - -
30/04:30am 21.8 SSE 11 14 1018.1 - - - - - - - - -
30/04:00am 21.8 SE 14 17 1018.4 - - - - - - - - -
30/03:30am 22.5 SSE 9 11 1018.2 - - - - - - - - -
30/03:00am 22.5 SSE 9 11 1018.3 - - - - - - - - -
30/02:30am 22.6 SSE 7 9 1018.5 - - - - - - - - -
30/02:00am 22.4 S 7 9 1018.8 - - - - - - - - -
30/01:30am 22.6 S 8 10 1019.2 - - - - - - - - -
30/01:00am 22.9 SSE 4 5 1019.3 - - - - - - - - -
30/12:30am 22.9 SSE 6 8 1019.7 - - - - - - - - -
30/12:00am 22.9 SSE 7 10 1019.7 - - - - - - - - -
 
Date/Time
EST
Temp

°C
Wind Pressure Rain
since 9am
mm
Weather Cloud Vis
km
Sea
Height
m
Swell
Dir
 
Speed
knots
Gust
knots
hPa Trend Height
m
Period
s
Dir
29/11:30pm 23.0 SSE 7 9 1020.2 - - - - - - - - -
29/11:00pm 23.1 SSE 6 8 1020.3 - - - - - - - - -
29/10:30pm 23.3 SE 9 12 1020.2 - - - - - - - - -
29/10:00pm 23.4 SE 10 12 1020.3 - - - - - - - - -
29/09:30pm 23.7 SE 13 16 1020.1 - - - - - - - - -
29/09:00pm 23.8 SE 15 17 1020.0 - - - - - - - - -
29/08:30pm 24.0 ESE 13 17 1020.1 - - - - - - - - -
29/08:00pm 24.2 ESE 13 17 1020.1 - - - - - - - - -
29/07:30pm 24.1 E 13 16 1019.9 - - - - - - - - -
29/07:00pm 24.0 ESE 14 17 1019.5 - - - - - - - - -
29/06:30pm 24.1 E 13 15 1019.5 - - - - - - - - -
29/06:00pm 24.0 E 10 12 1019.1 - - - - - - - - -
29/05:30pm 24.1 E 11 13 1018.8 - - - - - - - - -
29/05:00pm 24.2 ESE 13 15 1018.7 - - - - - - - - -
29/04:30pm 24.3 E 13 15 1018.4 - - - - - - - - -
29/04:00pm 24.1 E 13 15 1018.2 - - - - - - - - -
29/03:30pm 24.1 ESE 11 14 1017.9 - - - - - - - - -
29/03:00pm 24.0 ESE 12 14 1018.0 - - - - - - - - -
29/02:30pm 23.8 ESE 12 14 1018.2 - - - - - - - - -
29/02:00pm 23.7 E 10 11 1018.2 - - - - - - - - -
29/01:30pm 23.5 E 11 13 1018.6 - - - - - - - - -
29/01:00pm 23.5 E 10 12 1019.0 - - - - - - - - -
29/12:30pm 23.5 ESE 10 12 1019.3 - - - - - - - - -
29/12:00pm 23.5 ESE 11 13 1019.9 - - - - - - - - -
29/11:30am 23.5 ESE 10 13 1020.2 - - - - - - - - -
29/11:00am 23.5 ESE 11 13 1020.6 - - - - - - - - -
29/10:30am 23.0 SE 6 8 1020.7 - - - - - - - - -
29/10:00am 23.0 SE 8 10 1021.0 - - - - - - - - -
29/09:30am 22.6 SE 9 12 1021.0 - - - - - - - - -
29/09:00am 22.5 SSE 12 14 1020.8 - - - - - - - - -
29/08:30am 22.3 SSE 12 14 1020.5 - - - - - - - - -
29/08:00am 22.3 SSE 11 13 1020.2 - - - - - - - - -
29/07:30am 22.0 SSE 11 14 1020.1 - - - - - - - - -
29/07:00am 22.3 SSE 14 17 1020.0 - - - - - - - - -
29/06:30am 22.0 SSE 14 17 1019.7 - - - - - - - - -
29/06:00am 21.9 SSE 13 15 1019.5 - - - - - - - - -
29/05:30am 22.0 SSE 12 14 1019.4 - - - - - - - - -
29/05:00am 22.2 SSE 11 15 1019.3 - - - - - - - - -
29/04:30am 22.3 SSE 8 10 1019.1 - - - - - - - - -
29/04:00am 22.1 S 9 11 1018.9 - - - - - - - - -
29/03:30am 22.2 SSE 11 13 1018.7 - - - - - - - - -
29/03:00am 22.5 SSE 9 11 1019.0 - - - - - - - - -
29/02:30am 22.6 SSE 6 7 1019.2 - - - - - - - - -
29/02:00am 22.9 SE 9 12 1019.4 - - - - - - - - -
29/01:30am 23.0 SE 10 13 1019.6 - - - - - - - - -
29/01:00am 22.6 SE 11 14 1019.7 - - - - - - - - -
29/12:30am 22.7 SE 14 17 1020.1 - - - - - - - - -
29/12:00am 22.9 ESE 13 17 1020.0 - - - - - - - - -
 
Date/Time
EST
Temp

°C
Wind Pressure Rain
since 9am
mm
Weather Cloud Vis
km
Sea
Height
m
Swell
Dir
 
Speed
knots
Gust
knots
hPa Trend Height
m
Period
s
Dir
28/11:30pm 23.8 ESE 11 15 1019.9 - - - - - - - - -
28/11:00pm 23.8 ESE 11 14 1020.1 - - - - - - - - -
28/10:30pm 23.9 ESE 15 20 1020.5 - - - - - - - - -
28/10:00pm 22.4 E 12 21 1020.6 - - - - - - - - -
28/09:30pm 23.4 E 15 17 1020.4 - - - - - - - - -
28/09:00pm 23.6 E 17 20 1020.3 - - - - - - - - -
28/08:30pm 23.9 E 14 17 1020.1 - - - - - - - - -
28/08:00pm 23.7 ESE 11 13 1019.7 - - - - - - - - -
28/07:30pm 23.6 ESE 15 18 1019.5 - - - - - - - - -
28/07:00pm 23.6 ESE 16 19 1019.2 - - - - - - - - -
28/06:30pm 23.8 ESE 16 19 1018.9 - - - - - - - - -
28/06:00pm 23.9 ESE 14 17 1018.6 - - - - - - - - -
28/05:30pm 23.7 ESE 16 20 1018.5 - - - - - - - - -
28/05:00pm 23.8 ESE 16 20 1018.2 - - - - - - - - -
28/04:30pm 24.2 ESE 14 17 1017.9 - - - - - - - - -
28/04:00pm 23.8 ESE 15 18 1017.7 - - - - - - - - -
28/03:30pm 23.8 ESE 16 19 1017.8 - - - - - - - - -
28/03:00pm 23.9 E 14 17 1017.8 - - - - - - - - -
28/02:30pm 23.8 E 16 19 1018.0 - - - - - - - - -
28/02:00pm 23.7 E 14 17 1017.9 - - - - - - - - -
28/01:30pm 23.7 E 13 15 1018.0 - - - - - - - - -
28/01:00pm 23.8 E 14 16 1018.4 - - - - - - - - -
28/12:30pm 23.7 E 13 17 1018.8 - - - - - - - - -
28/12:00pm 23.5 E 13 15 1019.1 - - - - - - - - -
28/11:30am 23.4 ESE 6 9 1019.2 - - - - - - - - -
28/11:00am 23.0 SE 8 9 1019.6 - - - - - - - - -
28/10:30am 22.7 ESE 9 11 1020.0 - - - - - - - - -
28/10:00am 22.5 SE 9 11 1020.2 - - - - - - - - -
28/09:30am 22.1 SSE 8 10 1020.5 - - - - - - - - -
28/09:00am 22.0 SSE 5 7 1020.4 - - - - - - - - -
28/08:30am 21.6 SSE 6 8 1020.2 - - - - - - - - -
28/08:00am 21.5 S 9 11 1019.9 - - - - - - - - -
28/07:30am 21.4 S 7 8 1019.6 - - - - - - - - -
28/07:00am 21.4 S 6 9 1019.5 - - - - - - - - -
28/06:30am 21.5 S 7 10 1019.3 - - - - - - - - -
28/06:00am 21.5 S 8 11 1018.8 - - - - - - - - -
28/05:30am 21.5 S 7 10 1018.5 - - - - - - - - -
28/05:00am 21.4 S 7 9 1018.1 - - - - - - - - -
28/04:30am 21.5 S 7 10 1018.2 - - - - - - - - -
28/04:00am 21.3 S 11 15 1018.2 - - - - - - - - -
28/03:30am 21.6 S 12 14 1018.3 - - - - - - - - -
28/03:00am 21.4 S 12 15 1018.3 - - - - - - - - -
28/02:30am 21.8 S 11 14 1018.2 - - - - - - - - -
28/02:00am 21.9 SSE 10 13 1018.3 - - - - - - - - -
28/01:30am 22.3 SSE 9 12 1018.5 - - - - - - - - -
28/01:00am 22.4 SSE 6 8 1018.5 - - - - - - - - -
28/12:30am 22.3 SSE 8 10 1018.5 - - - - - - - - -
28/12:00am 22.4 SSE 9 10 1018.5 - - - - - - - - -
 
Date/Time
EST
Temp

°C
Wind Pressure Rain
since 9am
mm
Weather Cloud Vis
km
Sea
Height
m
Swell
Dir
 
Speed
knots
Gust
knots
hPa Trend Height
m
Period
s
Dir
27/11:30pm 22.7 SSE 8 10 1018.8 - - - - - - - - -
27/11:00pm 22.7 SSE 9 15 1019.0 - - - - - - - - -
27/10:30pm 23.6 ESE 12 15 1019.3 - - - - - - - - -
27/10:00pm 23.5 ESE 13 15 1019.6 - - - - - - - - -
27/09:30pm 23.7 ESE 13 17 1019.6 - - - - - - - - -
27/09:00pm 23.7 ESE 12 15 1019.6 - - - - - - - - -
27/08:30pm 23.7 ESE 14 16 1019.7 - - - - - - - - -
27/08:00pm 23.9 ESE 13 16 1019.4 - - - - - - - - -
27/07:30pm 23.9 E 13 16 1019.1 - - - - - - - - -
27/07:00pm 24.1 E 11 14 1018.7 - - - - - - - - -
27/06:30pm 24.3 E 14 17 1018.5 - - - - - - - - -
27/06:00pm 24.3 E 13 16 1018.1 - - - - - - - - -
27/05:30pm 23.9 E 14 17 1017.8 - - - - - - - - -
27/05:00pm 24.0 E 15 19 1017.7 - - - - - - - - -
27/04:30pm 24.0 E 15 18 1017.5 - - - - - - - - -
27/04:00pm 24.0 E 16 19 1017.4 - - - - - - - - -
27/03:30pm 23.9 E 14 17 1017.3 - - - - - - - - -
27/03:00pm 23.9 E 15 17 1017.4 - - - - - - - - -
27/02:30pm 23.8 E 15 17 1017.6 - - - - - - - - -
27/02:00pm 23.7 E 14 17 1017.7 - - - - - - - - -
27/01:30pm 23.7 E 15 17 1017.8 - - - - - - - - -
27/01:00pm 23.7 E 15 17 1018.4 - - - - - - - - -

Other Formats:

Comma delimited format used in spreadsheet applications
http://www.bom.gov.au/fwo/IDQ60701/IDQ60701.94297.axf

JavaScript Object Notation format (JSON) in row-major order
http://www.bom.gov.au/fwo/IDQ60701/IDQ60701.94297.json